createdAt,value
2019-04-27T00:03:30.056Z,1.30
2019-04-27T00:08:38.989Z,0.60
2019-04-27T00:13:41.682Z,1.37
2019-04-27T00:18:59.583Z,0.60
2019-04-27T00:24:03.519Z,0.85
2019-04-27T00:29:07.117Z,2.02
2019-04-27T00:34:10.655Z,1.50
2019-04-27T00:39:33.878Z,0.70
2019-04-27T00:44:37.337Z,0.60
2019-04-27T00:49:40.791Z,0.60
2019-04-27T00:54:44.309Z,1.02
2019-04-27T00:59:49.358Z,0.75
2019-04-27T01:04:52.997Z,0.62
2019-04-27T01:09:56.434Z,0.78
2019-04-27T01:14:59.907Z,1.52
2019-04-27T01:20:03.622Z,0.60
2019-04-27T01:25:08.809Z,0.40
2019-04-27T01:30:30.347Z,0.70
2019-04-27T01:35:33.871Z,0.70
2019-04-27T01:40:38.572Z,1.20
2019-04-27T01:45:42.157Z,0.47
2019-04-27T01:50:45.617Z,1.02
2019-04-27T01:55:49.286Z,0.53
2019-04-27T02:00:54.511Z,1.20
2019-04-27T02:05:59.365Z,0.57
2019-04-27T02:11:02.935Z,0.95
2019-04-27T02:16:06.386Z,0.65
2019-04-27T02:21:09.911Z,1.27
2019-04-27T02:26:13.374Z,0.72
2019-04-27T02:31:34.886Z,0.55
2019-04-27T02:36:39.136Z,0.40
2019-04-27T02:41:42.736Z,0.50
2019-04-27T02:46:46.200Z,1.15
2019-04-27T02:51:51.294Z,0.70
2019-04-27T02:56:54.772Z,1.52
2019-04-27T03:02:05.594Z,0.60
2019-04-27T03:07:11.318Z,0.75
2019-04-27T03:12:15.947Z,0.68
2019-04-27T03:17:22.733Z,0.42
2019-04-27T03:22:31.034Z,0.40
2019-04-27T03:27:36.265Z,1.20
2019-04-27T03:32:43.146Z,1.62
2019-04-27T03:37:45.316Z,0.57
2019-04-27T03:42:50.436Z,0.40
2019-04-27T03:47:54.237Z,0.60
2019-04-27T03:53:02.285Z,0.50
2019-04-27T03:58:21.671Z,0.50
2019-04-27T04:03:25.107Z,0.60
2019-04-27T04:08:30.771Z,0.57
2019-04-27T04:13:41.076Z,0.60
2019-04-27T04:19:00.427Z,0.78
2019-04-27T04:24:03.248Z,0.45
2019-04-27T04:29:06.735Z,0.40
2019-04-27T04:34:12.114Z,0.50
2019-04-27T04:39:15.415Z,5.90
2019-04-27T04:44:36.745Z,0.65
2019-04-27T04:49:40.245Z,0.65
2019-04-27T04:54:43.698Z,0.65
2019-04-27T04:59:49.392Z,0.53
2019-04-27T05:04:52.388Z,0.70
2019-04-27T05:09:55.868Z,1.20
2019-04-27T05:14:59.352Z,0.95
2019-04-27T05:20:04.563Z,2.37
2019-04-27T05:25:09.298Z,0.40
2019-04-27T05:30:13.351Z,0.73
2019-04-27T05:35:16.811Z,0.63
2019-04-27T05:40:20.290Z,0.50
2019-04-27T05:46:10.858Z,0.53
2019-04-27T05:51:12.813Z,0.42
2019-04-27T05:56:16.282Z,0.40
2019-04-27T06:01:19.760Z,1.40
2019-04-27T06:06:23.230Z,0.65
2019-04-27T06:11:28.436Z,0.57
2019-04-27T06:16:31.902Z,2.02
2019-04-27T06:21:35.371Z,0.55
2019-04-27T06:26:39.919Z,0.53
2019-04-27T06:31:43.612Z,0.70
2019-04-27T06:36:48.641Z,0.40
2019-04-27T06:41:52.237Z,0.75
2019-04-27T06:46:55.731Z,0.70
2019-04-27T06:51:59.233Z,1.95
2019-04-27T06:57:02.679Z,4.62
2019-04-27T07:02:06.136Z,7.03
2019-04-27T07:07:09.841Z,8.95
2019-04-27T07:12:13.357Z,8.35
2019-04-27T07:17:16.814Z,8.28
2019-04-27T07:22:20.280Z,6.87
2019-04-27T07:27:23.726Z,4.60
2019-04-27T07:32:29.129Z,4.55
2019-04-27T07:37:32.363Z,3.83
2019-04-27T07:42:35.822Z,3.75
2019-04-27T07:47:40.922Z,4.00
2019-04-27T07:52:44.375Z,5.87
2019-04-27T07:57:49.422Z,3.98
2019-04-27T08:02:53.071Z,4.37
2019-04-27T08:07:56.522Z,5.12
2019-04-27T08:12:59.982Z,4.85
2019-04-27T08:18:03.447Z,11.05
2019-04-27T08:23:06.905Z,5.03
2019-04-27T08:28:18.750Z,4.17
2019-04-27T08:33:22.287Z,4.00
2019-04-27T08:38:25.745Z,3.50
2019-04-27T08:43:29.204Z,11.50
2019-04-27T08:48:36.722Z,7.47
2019-04-27T08:53:39.629Z,5.33
2019-04-27T08:58:43.041Z,4.33
2019-04-27T09:03:46.496Z,6.42
2019-04-27T09:08:51.609Z,4.90
2019-04-27T09:13:56.687Z,4.90
2019-04-27T09:19:01.799Z,4.33
2019-04-27T09:24:05.250Z,3.90
2019-04-27T09:29:08.742Z,6.12
2019-04-27T09:34:12.779Z,5.62
2019-04-27T09:39:16.709Z,5.00
2019-04-27T09:44:20.160Z,5.10
2019-04-27T09:49:23.622Z,4.37
2019-04-27T09:54:27.239Z,5.95
2019-04-27T09:59:30.808Z,7.30
2019-04-27T10:04:35.599Z,4.30
2019-04-27T10:09:39.202Z,4.72
2019-04-27T10:14:42.662Z,5.15
2019-04-27T10:19:46.245Z,50.92
2019-04-27T10:24:49.679Z,57.50
2019-04-27T10:29:53.149Z,83.72
2019-04-27T10:34:56.616Z,51.37
2019-04-27T10:40:00.082Z,33.53
2019-04-27T10:45:04.249Z,9.95
2019-04-27T10:50:07.978Z,8.38
2019-04-27T10:55:11.677Z,9.70
2019-04-27T11:00:17.213Z,6.43
2019-04-27T11:05:31.256Z,6.60
2019-04-27T11:10:33.726Z,10.93
2019-04-27T11:15:37.352Z,6.53
2019-04-27T11:20:40.814Z,3.62
2019-04-27T11:25:44.271Z,3.87
2019-04-27T11:30:47.731Z,6.12
2019-04-27T11:35:52.830Z,8.35
2019-04-27T11:40:56.767Z,5.40
2019-04-27T11:46:00.322Z,2.50
2019-04-27T11:51:03.785Z,2.52
2019-04-27T11:56:07.249Z,5.40
2019-04-27T12:01:10.697Z,4.28
2019-04-27T12:06:15.792Z,4.80
2019-04-27T12:11:19.290Z,3.60
2019-04-27T12:16:22.758Z,3.02
2019-04-27T12:21:26.217Z,4.55
2019-04-27T12:26:31.318Z,2.65
2019-04-27T12:31:39.342Z,1.62
2019-04-27T12:36:42.967Z,3.85
2019-04-27T12:41:46.497Z,2.47
2019-04-27T12:46:49.955Z,3.52
2019-04-27T12:51:53.426Z,4.45
2019-04-27T12:57:05.866Z,1.30
2019-04-27T13:02:09.784Z,1.75
2019-04-27T13:07:13.253Z,1.22
2019-04-27T13:12:16.711Z,0.85
2019-04-27T13:17:20.173Z,4.30
2019-04-27T13:22:23.636Z,3.85
2019-04-27T13:27:27.097Z,1.02
2019-04-27T13:32:30.549Z,0.80
2019-04-27T13:37:41.397Z,1.57
2019-04-27T13:42:47.892Z,2.72
2019-04-27T13:48:11.046Z,1.82
2019-04-27T13:53:16.645Z,1.30
2019-04-27T13:58:19.694Z,0.82
2019-04-27T14:03:25.118Z,0.98
2019-04-27T14:08:29.109Z,0.35
2019-04-27T14:13:32.675Z,3.50
2019-04-27T14:18:36.133Z,2.47
2019-04-27T14:23:39.592Z,1.17
2019-04-27T14:28:43.052Z,0.78
2019-04-27T14:33:48.254Z,0.78
2019-04-27T14:38:51.690Z,0.60
2019-04-27T14:44:07.429Z,0.85
2019-04-27T14:49:00.342Z,0.50
2019-04-27T14:54:03.873Z,4.37
2019-04-27T14:59:07.609Z,2.37
2019-04-27T15:04:11.061Z,0.72
2019-04-27T15:09:18.053Z,0.55
2019-04-27T15:14:20.735Z,0.60
2019-04-27T15:19:29.189Z,0.95
2019-04-27T15:24:32.645Z,1.45
2019-04-27T15:29:36.252Z,0.60
2019-04-27T15:34:53.341Z,0.40
2019-04-27T15:40:08.985Z,1.95
2019-04-27T15:45:12.025Z,1.65
2019-04-27T15:50:15.322Z,0.30
2019-04-27T15:55:32.279Z,0.65
2019-04-27T16:00:28.136Z,0.57
2019-04-27T16:05:33.344Z,0.25
2019-04-27T16:10:39.137Z,0.40
2019-04-27T16:15:41.724Z,1.60
2019-04-27T16:20:45.516Z,1.73
2019-04-27T16:25:51.380Z,1.98
2019-04-27T16:30:54.199Z,0.45
2019-04-27T16:36:06.206Z,0.75
2019-04-27T16:41:03.428Z,0.85
2019-04-27T16:46:08.774Z,0.47
2019-04-27T16:51:12.398Z,1.02
2019-04-27T16:56:18.330Z,1.37
2019-04-27T17:01:30.446Z,1.50
2019-04-27T17:06:34.190Z,2.52
2019-04-27T17:11:38.776Z,1.67
2019-04-27T17:16:52.753Z,2.15
2019-04-27T17:21:56.207Z,0.30
2019-04-27T17:26:59.664Z,0.75
2019-04-27T17:32:03.466Z,0.72
2019-04-27T17:37:08.275Z,3.10
2019-04-27T17:42:11.838Z,2.45
2019-04-27T17:47:15.298Z,2.55
2019-04-27T17:52:18.755Z,2.33
2019-04-27T17:57:26.181Z,2.47
2019-04-27T18:02:29.333Z,5.33
2019-04-27T18:07:34.908Z,4.20
2019-04-27T18:12:38.103Z,2.47
2019-04-27T18:17:48.323Z,3.08
2019-04-27T18:23:02.255Z,3.90
2019-04-27T18:28:14.689Z,4.25
2019-04-27T18:33:12.880Z,4.10
2019-04-27T18:38:16.338Z,2.87
2019-04-27T18:43:19.797Z,2.30
2019-04-27T18:48:24.898Z,2.50
2019-04-27T18:53:29.994Z,2.02
2019-04-27T18:58:33.454Z,5.80
2019-04-27T19:03:36.908Z,3.20
2019-04-27T19:08:40.369Z,2.67
2019-04-27T19:13:43.831Z,2.72
2019-04-27T19:18:48.053Z,2.17
2019-04-27T19:23:51.697Z,2.55
2019-04-27T19:28:58.376Z,3.10
2019-04-27T19:34:01.932Z,2.40
2019-04-27T19:39:08.765Z,6.50
2019-04-27T19:44:12.264Z,2.90
2019-04-27T19:49:15.719Z,2.62
2019-04-27T19:54:19.184Z,2.17
2019-04-27T19:59:42.627Z,2.02
2019-04-27T20:04:47.727Z,1.70
2019-04-27T20:09:58.894Z,3.52
2019-04-27T20:15:02.553Z,3.72
2019-04-27T20:20:06.486Z,3.00
2019-04-27T20:25:11.197Z,2.22
2019-04-27T20:30:15.299Z,2.37
2019-04-27T20:35:18.762Z,2.10
2019-04-27T20:40:22.215Z,6.20
2019-04-27T20:45:25.672Z,2.98
2019-04-27T20:50:30.866Z,2.27
2019-04-27T20:55:34.320Z,0.90
2019-04-27T21:00:37.785Z,1.70
2019-04-27T21:05:58.730Z,2.83
2019-04-27T21:11:02.204Z,2.02
2019-04-27T21:16:05.677Z,3.00
2019-04-27T21:21:09.136Z,1.20
2019-04-27T21:26:12.609Z,1.95
2019-04-27T21:31:16.081Z,1.50
2019-04-27T21:36:19.525Z,1.30
2019-04-27T21:41:23.056Z,1.45
2019-04-27T21:46:26.527Z,1.52
2019-04-27T21:51:31.051Z,0.95
2019-04-27T21:56:34.508Z,1.05
2019-04-27T22:01:38.234Z,1.55
2019-04-27T22:06:41.867Z,2.25
2019-04-27T22:11:45.325Z,1.22
2019-04-27T22:16:48.779Z,1.57
2019-04-27T22:21:52.240Z,3.15
2019-04-27T22:26:55.699Z,2.47
2019-04-27T22:31:59.158Z,2.40
2019-04-27T22:37:02.839Z,1.42
2019-04-27T22:42:17.005Z,2.25
2019-04-27T22:47:21.556Z,1.62
2019-04-27T22:52:25.179Z,1.60
2019-04-27T22:57:31.425Z,0.82
2019-04-27T23:02:42.657Z,1.87
2019-04-27T23:07:46.121Z,1.07
2019-04-27T23:12:50.997Z,1.17
2019-04-27T23:17:57.728Z,2.12
2019-04-27T23:23:02.779Z,1.00
2019-04-27T23:28:06.423Z,0.88
2019-04-27T23:33:11.147Z,1.10
2019-04-27T23:38:17.868Z,1.55
2019-04-27T23:43:19.931Z,1.50
2019-04-27T23:48:24.986Z,0.90
2019-04-27T23:53:31.735Z,1.40
2019-04-27T23:58:35.322Z,1.22
